Terminal Aerodrome Forecast
Issued by NWS

Home | Current Version | Previous Version | Text Only | Print | Product List | Glossary On
Versions: 1 2 3 4 5 6 7 8 9 10 11 12 13 14 15
488
FTUS45 KRIW 231738
TAFBPI
TAF
KBPI 231738Z 2318/2418 35005KT P6SM FEW018 SCT035 BKN050
      TEMPO 2318/2320 SCT018 OVC035
     FM232000 12009KT P6SM VCSH SCT020 BKN035
     FM240400 02013KT P6SM VCSH SCT030 BKN045
     FM240900 03008KT P6SM -RASN SCT020 BKN030=

USA.gov is the U.S. government's official web portal to all federal, state and local government web resources and services.